sensor_id;sensor_type;location;lat;lon;timestamp;P1;durP1;ratioP1;P2;durP2;ratioP2
15289;SDS011;7746;50.554;7.108;2023-08-21T10:13:41;439.67;;;393.20;;
15289;SDS011;7746;50.554;7.108;2023-08-21T10:16:08;411.17;;;347.90;;
15289;SDS011;7746;50.554;7.108;2023-08-21T10:18:36;412.30;;;354.70;;
15289;SDS011;7746;50.554;7.108;2023-08-21T10:21:12;411.40;;;340.73;;
15289;SDS011;7746;50.554;7.108;2023-08-21T10:23:39;407.53;;;320.83;;
15289;SDS011;7746;50.554;7.108;2023-08-21T10:26:06;409.80;;;317.93;;
15289;SDS011;7746;50.554;7.108;2023-08-21T10:28:44;403.50;;;314.43;;
15289;SDS011;7746;50.554;7.108;2023-08-21T10:31:25;404.97;;;305.93;;
15289;SDS011;7746;50.554;7.108;2023-08-21T10:37:42;408.50;;;322.07;;
15289;SDS011;7746;50.554;7.108;2023-08-21T10:40:35;410.80;;;323.47;;
15289;SDS011;7746;50.554;7.108;2023-08-21T10:43:03;404.53;;;322.97;;
15289;SDS011;7746;50.554;7.108;2023-08-21T10:45:30;402.67;;;313.37;;
15289;SDS011;7746;50.554;7.108;2023-08-21T10:47:57;400.23;;;325.87;;
15289;SDS011;7746;50.554;7.108;2023-08-21T10:50:24;403.47;;;313.17;;
15289;SDS011;7746;50.554;7.108;2023-08-21T10:52:52;405.70;;;321.60;;
15289;SDS011;7746;50.554;7.108;2023-08-21T10:55:19;411.77;;;321.27;;
15289;SDS011;7746;50.554;7.108;2023-08-21T10:57:47;403.13;;;309.73;;
15289;SDS011;7746;50.554;7.108;2023-08-21T11:00:16;406.17;;;306.63;;
15289;SDS011;7746;50.554;7.108;2023-08-21T11:02:45;399.10;;;310.53;;
15289;SDS011;7746;50.554;7.108;2023-08-21T11:05:15;400.53;;;310.27;;
15289;SDS011;7746;50.554;7.108;2023-08-21T11:07:43;400.23;;;315.87;;
15289;SDS011;7746;50.554;7.108;2023-08-21T11:10:13;394.80;;;308.10;;
15289;SDS011;7746;50.554;7.108;2023-08-21T11:12:49;406.43;;;325.00;;
15289;SDS011;7746;50.554;7.108;2023-08-21T11:15:17;401.40;;;322.20;;
15289;SDS011;7746;50.554;7.108;2023-08-21T11:17:51;402.93;;;323.43;;
15289;SDS011;7746;50.554;7.108;2023-08-21T11:20:27;409.23;;;327.30;;
15289;SDS011;7746;50.554;7.108;2023-08-21T11:22:56;400.83;;;309.70;;
15289;SDS011;7746;50.554;7.108;2023-08-21T11:25:25;399.87;;;311.03;;
15289;SDS011;7746;50.554;7.108;2023-08-21T11:27:52;398.87;;;329.20;;
15289;SDS011;7746;50.554;7.108;2023-08-21T11:30:21;409.03;;;331.03;;
15289;SDS011;7746;50.554;7.108;2023-08-21T11:32:49;406.33;;;323.03;;
15289;SDS011;7746;50.554;7.108;2023-08-21T11:35:30;396.30;;;312.60;;
15289;SDS011;7746;50.554;7.108;2023-08-21T11:37:57;410.33;;;342.10;;
15289;SDS011;7746;50.554;7.108;2023-08-21T11:40:26;412.30;;;359.60;;
15289;SDS011;7746;50.554;7.108;2023-08-21T11:42:53;416.53;;;370.33;;
15289;SDS011;7746;50.554;7.108;2023-08-21T11:45:26;401.07;;;327.37;;
15289;SDS011;7746;50.554;7.108;2023-08-21T11:47:55;396.93;;;318.60;;
15289;SDS011;7746;50.554;7.108;2023-08-21T11:50:22;408.60;;;340.27;;
15289;SDS011;7746;50.554;7.108;2023-08-21T11:52:52;408.33;;;353.70;;
15289;SDS011;7746;50.554;7.108;2023-08-21T11:55:21;409.23;;;334.40;;
15289;SDS011;7746;50.554;7.108;2023-08-21T11:57:51;410.93;;;342.40;;
15289;SDS011;7746;50.554;7.108;2023-08-21T12:00:26;404.73;;;328.40;;
15289;SDS011;7746;50.554;7.108;2023-08-21T12:02:55;408.23;;;358.07;;
15289;SDS011;7746;50.554;7.108;2023-08-21T12:05:23;406.43;;;317.40;;
15289;SDS011;7746;50.554;7.108;2023-08-21T12:07:51;403.90;;;332.90;;
15289;SDS011;7746;50.554;7.108;2023-08-21T12:10:22;451.23;;;404.17;;
15289;SDS011;7746;50.554;7.108;2023-08-21T12:12:51;408.93;;;348.73;;
15289;SDS011;7746;50.554;7.108;2023-08-21T12:15:18;414.27;;;358.60;;
15289;SDS011;7746;50.554;7.108;2023-08-21T12:17:46;423.77;;;377.73;;
15289;SDS011;7746;50.554;7.108;2023-08-21T12:20:13;418.47;;;371.20;;
15289;SDS011;7746;50.554;7.108;2023-08-21T12:22:40;442.50;;;395.70;;
15289;SDS011;7746;50.554;7.108;2023-08-21T12:25:08;406.77;;;360.97;;
15289;SDS011;7746;50.554;7.108;2023-08-21T12:27:36;405.37;;;330.80;;
15289;SDS011;7746;50.554;7.108;2023-08-21T12:30:05;411.00;;;361.17;;
15289;SDS011;7746;50.554;7.108;2023-08-21T12:32:33;409.40;;;346.40;;
15289;SDS011;7746;50.554;7.108;2023-08-21T12:35:00;413.93;;;367.10;;
15289;SDS011;7746;50.554;7.108;2023-08-21T12:37:29;405.00;;;348.77;;
15289;SDS011;7746;50.554;7.108;2023-08-21T12:39:56;413.17;;;362.90;;
15289;SDS011;7746;50.554;7.108;2023-08-21T12:42:23;413.00;;;340.80;;
15289;SDS011;7746;50.554;7.108;2023-08-21T12:44:51;404.73;;;336.30;;
15289;SDS011;7746;50.554;7.108;2023-08-21T12:47:19;399.17;;;334.63;;
15289;SDS011;7746;50.554;7.108;2023-08-21T12:49:46;409.90;;;335.73;;
15289;SDS011;7746;50.554;7.108;2023-08-21T12:52:14;410.10;;;335.03;;
15289;SDS011;7746;50.554;7.108;2023-08-21T12:54:41;399.87;;;333.53;;
15289;SDS011;7746;50.554;7.108;2023-08-21T12:57:08;409.03;;;347.13;;
15289;SDS011;7746;50.554;7.108;2023-08-21T12:59:36;481.03;;;433.53;;
15289;SDS011;7746;50.554;7.108;2023-08-21T13:02:03;440.73;;;394.07;;
15289;SDS011;7746;50.554;7.108;2023-08-21T13:04:32;468.87;;;421.80;;
15289;SDS011;7746;50.554;7.108;2023-08-21T13:06:59;437.70;;;391.27;;
15289;SDS011;7746;50.554;7.108;2023-08-21T13:09:28;417.50;;;371.33;;
15289;SDS011;7746;50.554;7.108;2023-08-21T13:11:55;440.30;;;393.70;;
15289;SDS011;7746;50.554;7.108;2023-08-21T13:14:22;412.77;;;364.87;;
15289;SDS011;7746;50.554;7.108;2023-08-21T13:16:49;425.90;;;379.80;;
15289;SDS011;7746;50.554;7.108;2023-08-21T13:19:17;414.03;;;362.93;;
15289;SDS011;7746;50.554;7.108;2023-08-21T13:21:45;430.97;;;385.07;;
15289;SDS011;7746;50.554;7.108;2023-08-21T13:24:12;408.80;;;352.43;;
15289;SDS011;7746;50.554;7.108;2023-08-21T13:26:40;402.87;;;336.87;;
15289;SDS011;7746;50.554;7.108;2023-08-21T13:29:07;404.87;;;347.17;;
15289;SDS011;7746;50.554;7.108;2023-08-21T13:31:34;405.37;;;354.30;;
15289;SDS011;7746;50.554;7.108;2023-08-21T13:34:01;411.43;;;362.27;;
15289;SDS011;7746;50.554;7.108;2023-08-21T13:36:28;410.90;;;337.00;;
15289;SDS011;7746;50.554;7.108;2023-08-21T13:38:57;396.80;;;314.63;;
15289;SDS011;7746;50.554;7.108;2023-08-21T13:41:24;410.33;;;361.97;;
15289;SDS011;7746;50.554;7.108;2023-08-21T13:43:51;415.90;;;370.23;;
15289;SDS011;7746;50.554;7.108;2023-08-21T13:46:19;404.50;;;332.17;;
15289;SDS011;7746;50.554;7.108;2023-08-21T13:48:46;439.33;;;393.17;;
15289;SDS011;7746;50.554;7.108;2023-08-21T13:51:13;423.23;;;377.23;;
15289;SDS011;7746;50.554;7.108;2023-08-21T13:53:40;411.30;;;361.57;;
15289;SDS011;7746;50.554;7.108;2023-08-21T13:56:09;404.63;;;346.27;;
15289;SDS011;7746;50.554;7.108;2023-08-21T13:58:36;426.67;;;380.77;;
15289;SDS011;7746;50.554;7.108;2023-08-21T14:01:03;426.40;;;380.27;;
15289;SDS011;7746;50.554;7.108;2023-08-21T14:03:31;443.87;;;396.93;;
15289;SDS011;7746;50.554;7.108;2023-08-21T14:05:58;442.07;;;395.77;;
15289;SDS011;7746;50.554;7.108;2023-08-21T14:08:26;443.37;;;397.60;;
15289;SDS011;7746;50.554;7.108;2023-08-21T14:10:53;410.60;;;365.10;;
15289;SDS011;7746;50.554;7.108;2023-08-21T14:13:22;422.20;;;361.83;;
15289;SDS011;7746;50.554;7.108;2023-08-21T14:15:49;417.13;;;371.60;;
15289;SDS011;7746;50.554;7.108;2023-08-21T14:18:16;421.00;;;374.77;;
15289;SDS011;7746;50.554;7.108;2023-08-21T14:20:43;406.47;;;358.57;;
15289;SDS011;7746;50.554;7.108;2023-08-21T14:23:10;410.33;;;365.43;;
15289;SDS011;7746;50.554;7.108;2023-08-21T14:25:38;417.30;;;371.83;;
15289;SDS011;7746;50.554;7.108;2023-08-21T14:28:05;421.20;;;375.70;;
15289;SDS011;7746;50.554;7.108;2023-08-21T14:30:33;446.43;;;399.77;;
15289;SDS011;7746;50.554;7.108;2023-08-21T14:33:01;421.03;;;375.07;;
15289;SDS011;7746;50.554;7.108;2023-08-21T14:35:29;444.10;;;397.43;;
15289;SDS011;7746;50.554;7.108;2023-08-21T14:37:56;432.20;;;386.47;;
15289;SDS011;7746;50.554;7.108;2023-08-21T14:40:23;424.50;;;378.37;;
15289;SDS011;7746;50.554;7.108;2023-08-21T14:42:50;436.57;;;390.73;;
15289;SDS011;7746;50.554;7.108;2023-08-21T14:45:17;449.80;;;403.37;;
15289;SDS011;7746;50.554;7.108;2023-08-21T14:47:46;461.20;;;414.47;;
15289;SDS011;7746;50.554;7.108;2023-08-21T14:50:13;466.47;;;419.20;;
15289;SDS011;7746;50.554;7.108;2023-08-21T14:52:40;434.60;;;388.50;;
15289;SDS011;7746;50.554;7.108;2023-08-21T14:55:08;491.00;;;443.33;;
15289;SDS011;7746;50.554;7.108;2023-08-21T14:57:35;450.90;;;404.93;;
15289;SDS011;7746;50.554;7.108;2023-08-21T15:00:02;421.07;;;374.73;;
15289;SDS011;7746;50.554;7.108;2023-08-21T15:02:30;455.70;;;407.63;;
15289;SDS011;7746;50.554;7.108;2023-08-21T15:04:58;468.37;;;421.73;;
15289;SDS011;7746;50.554;7.108;2023-08-21T15:07:30;413.60;;;358.57;;
15289;SDS011;7746;50.554;7.108;2023-08-21T15:09:57;433.80;;;387.80;;
15289;SDS011;7746;50.554;7.108;2023-08-21T15:12:24;426.13;;;379.50;;
15289;SDS011;7746;50.554;7.108;2023-08-21T15:14:51;425.70;;;379.50;;
15289;SDS011;7746;50.554;7.108;2023-08-21T15:17:18;435.50;;;388.57;;
15289;SDS011;7746;50.554;7.108;2023-08-21T15:19:46;418.80;;;373.17;;
15289;SDS011;7746;50.554;7.108;2023-08-21T15:22:16;444.87;;;397.37;;
15289;SDS011;7746;50.554;7.108;2023-08-21T15:24:44;407.07;;;353.33;;
15289;SDS011;7746;50.554;7.108;2023-08-21T15:27:11;405.70;;;352.83;;
15289;SDS011;7746;50.554;7.108;2023-08-21T15:29:39;461.30;;;413.53;;
15289;SDS011;7746;50.554;7.108;2023-08-21T15:32:06;440.50;;;393.60;;
15289;SDS011;7746;50.554;7.108;2023-08-21T15:34:33;418.30;;;351.33;;
15289;SDS011;7746;50.554;7.108;2023-08-21T15:37:01;448.47;;;402.13;;
15289;SDS011;7746;50.554;7.108;2023-08-21T15:39:30;409.57;;;335.57;;
15289;SDS011;7746;50.554;7.108;2023-08-21T15:41:57;414.00;;;352.60;;
15289;SDS011;7746;50.554;7.108;2023-08-21T15:44:24;452.10;;;404.87;;
15289;SDS011;7746;50.554;7.108;2023-08-21T15:46:51;417.63;;;372.10;;
15289;SDS011;7746;50.554;7.108;2023-08-21T15:49:19;443.13;;;396.73;;
15289;SDS011;7746;50.554;7.108;2023-08-21T15:51:46;415.33;;;368.97;;
15289;SDS011;7746;50.554;7.108;2023-08-21T15:54:13;407.93;;;356.97;;
15289;SDS011;7746;50.554;7.108;2023-08-21T15:56:45;428.87;;;383.13;;
15289;SDS011;7746;50.554;7.108;2023-08-21T15:59:12;450.00;;;403.30;;
15289;SDS011;7746;50.554;7.108;2023-08-21T16:01:40;478.57;;;430.40;;
15289;SDS011;7746;50.554;7.108;2023-08-21T16:04:07;484.53;;;436.43;;
15289;SDS011;7746;50.554;7.108;2023-08-21T16:06:34;445.70;;;398.30;;
15289;SDS011;7746;50.554;7.108;2023-08-21T16:09:01;466.10;;;419.00;;
15289;SDS011;7746;50.554;7.108;2023-08-21T16:11:29;414.83;;;369.87;;
15289;SDS011;7746;50.554;7.108;2023-08-21T16:13:57;477.43;;;430.57;;
15289;SDS011;7746;50.554;7.108;2023-08-21T16:16:26;511.40;;;462.83;;
15289;SDS011;7746;50.554;7.108;2023-08-21T16:18:54;497.13;;;449.23;;
15289;SDS011;7746;50.554;7.108;2023-08-21T16:21:21;507.47;;;459.63;;
15289;SDS011;7746;50.554;7.108;2023-08-21T16:23:48;454.80;;;408.53;;
15289;SDS011;7746;50.554;7.108;2023-08-21T16:26:15;474.93;;;427.60;;
15289;SDS011;7746;50.554;7.108;2023-08-21T16:28:43;433.67;;;387.43;;
15289;SDS011;7746;50.554;7.108;2023-08-21T16:31:13;474.03;;;426.73;;
15289;SDS011;7746;50.554;7.108;2023-08-21T16:33:42;471.40;;;424.20;;
15289;SDS011;7746;50.554;7.108;2023-08-21T16:36:09;492.57;;;444.90;;
15289;SDS011;7746;50.554;7.108;2023-08-21T16:38:36;410.67;;;361.60;;
15289;SDS011;7746;50.554;7.108;2023-08-21T16:41:03;416.17;;;369.17;;
15289;SDS011;7746;50.554;7.108;2023-08-21T16:43:30;420.17;;;372.57;;
15289;SDS011;7746;50.554;7.108;2023-08-21T16:45:58;414.50;;;350.50;;
15289;SDS011;7746;50.554;7.108;2023-08-21T16:48:26;406.70;;;353.70;;
15289;SDS011;7746;50.554;7.108;2023-08-21T16:50:54;421.23;;;352.03;;
15289;SDS011;7746;50.554;7.108;2023-08-21T16:53:21;412.20;;;365.27;;
15289;SDS011;7746;50.554;7.108;2023-08-21T16:55:48;407.20;;;353.43;;
15289;SDS011;7746;50.554;7.108;2023-08-21T16:58:15;419.17;;;369.60;;
15289;SDS011;7746;50.554;7.108;2023-08-21T17:00:42;414.13;;;360.30;;
15289;SDS011;7746;50.554;7.108;2023-08-21T17:03:10;408.40;;;351.03;;
15289;SDS011;7746;50.554;7.108;2023-08-21T17:05:38;408.30;;;331.37;;
15289;SDS011;7746;50.554;7.108;2023-08-21T17:08:05;407.30;;;341.20;;
15289;SDS011;7746;50.554;7.108;2023-08-21T17:10:34;410.33;;;347.67;;
15289;SDS011;7746;50.554;7.108;2023-08-21T17:13:02;423.67;;;377.80;;
15289;SDS011;7746;50.554;7.108;2023-08-21T17:15:29;410.30;;;354.20;;
15289;SDS011;7746;50.554;7.108;2023-08-21T17:17:56;416.97;;;370.73;;
15289;SDS011;7746;50.554;7.108;2023-08-21T17:20:27;415.77;;;368.00;;
15289;SDS011;7746;50.554;7.108;2023-08-21T17:22:55;409.03;;;334.43;;
15289;SDS011;7746;50.554;7.108;2023-08-21T17:25:23;407.63;;;352.53;;
15289;SDS011;7746;50.554;7.108;2023-08-21T17:27:50;406.60;;;349.13;;
15289;SDS011;7746;50.554;7.108;2023-08-21T17:30:18;409.83;;;334.13;;
15289;SDS011;7746;50.554;7.108;2023-08-21T17:32:47;413.07;;;349.40;;
15289;SDS011;7746;50.554;7.108;2023-08-21T17:35:14;415.40;;;356.77;;
15289;SDS011;7746;50.554;7.108;2023-08-21T17:37:41;414.83;;;356.93;;
15289;SDS011;7746;50.554;7.108;2023-08-21T17:40:10;417.10;;;368.20;;
15289;SDS011;7746;50.554;7.108;2023-08-21T17:42:37;416.20;;;354.70;;
15289;SDS011;7746;50.554;7.108;2023-08-21T17:45:05;425.13;;;378.17;;
15289;SDS011;7746;50.554;7.108;2023-08-21T17:47:32;418.53;;;359.73;;
15289;SDS011;7746;50.554;7.108;2023-08-21T17:50:00;426.30;;;376.73;;
15289;SDS011;7746;50.554;7.108;2023-08-21T17:52:27;438.80;;;390.90;;
15289;SDS011;7746;50.554;7.108;2023-08-21T17:54:55;440.93;;;393.40;;
15289;SDS011;7746;50.554;7.108;2023-08-21T17:57:23;426.83;;;370.33;;
15289;SDS011;7746;50.554;7.108;2023-08-21T17:59:50;427.17;;;373.37;;
15289;SDS011;7746;50.554;7.108;2023-08-21T18:02:18;424.93;;;370.07;;
15289;SDS011;7746;50.554;7.108;2023-08-21T18:04:45;427.80;;;379.37;;
15289;SDS011;7746;50.554;7.108;2023-08-21T18:07:13;410.43;;;315.93;;
15289;SDS011;7746;50.554;7.108;2023-08-21T18:09:41;419.10;;;341.57;;
15289;SDS011;7746;50.554;7.108;2023-08-21T18:12:08;421.23;;;373.13;;
15289;SDS011;7746;50.554;7.108;2023-08-21T18:14:37;416.03;;;364.03;;
15289;SDS011;7746;50.554;7.108;2023-08-21T18:17:04;414.03;;;355.57;;
15289;SDS011;7746;50.554;7.108;2023-08-21T18:19:37;423.83;;;374.33;;
15289;SDS011;7746;50.554;7.108;2023-08-21T18:22:05;430.17;;;383.13;;
15289;SDS011;7746;50.554;7.108;2023-08-21T18:24:32;409.87;;;352.63;;
15289;SDS011;7746;50.554;7.108;2023-08-21T18:26:59;413.73;;;359.90;;
15289;SDS011;7746;50.554;7.108;2023-08-21T18:29:27;412.90;;;346.13;;
15289;SDS011;7746;50.554;7.108;2023-08-21T18:31:55;416.23;;;340.27;;
15289;SDS011;7746;50.554;7.108;2023-08-21T18:34:22;420.23;;;364.33;;
15289;SDS011;7746;50.554;7.108;2023-08-21T18:36:49;408.00;;;322.27;;
15289;SDS011;7746;50.554;7.108;2023-08-21T18:39:17;422.63;;;374.90;;
15289;SDS011;7746;50.554;7.108;2023-08-21T18:41:44;422.93;;;351.13;;
15289;SDS011;7746;50.554;7.108;2023-08-21T18:44:11;424.20;;;377.50;;
15289;SDS011;7746;50.554;7.108;2023-08-21T18:46:38;415.70;;;357.97;;
15289;SDS011;7746;50.554;7.108;2023-08-21T18:49:06;416.63;;;350.33;;
15289;SDS011;7746;50.554;7.108;2023-08-21T18:51:34;421.70;;;350.47;;
15289;SDS011;7746;50.554;7.108;2023-08-21T18:54:01;420.50;;;337.87;;
15289;SDS011;7746;50.554;7.108;2023-08-21T18:56:28;424.03;;;364.83;;
15289;SDS011;7746;50.554;7.108;2023-08-21T18:58:57;432.03;;;384.43;;
15289;SDS011;7746;50.554;7.108;2023-08-21T19:01:24;427.70;;;368.83;;
15289;SDS011;7746;50.554;7.108;2023-08-21T19:03:51;420.43;;;339.77;;
15289;SDS011;7746;50.554;7.108;2023-08-21T19:06:20;416.60;;;337.97;;
15289;SDS011;7746;50.554;7.108;2023-08-21T19:08:47;412.43;;;337.17;;
15289;SDS011;7746;50.554;7.108;2023-08-21T19:11:14;409.23;;;319.83;;
15289;SDS011;7746;50.554;7.108;2023-08-21T19:13:41;417.33;;;330.10;;
15289;SDS011;7746;50.554;7.108;2023-08-21T19:16:09;416.57;;;331.83;;
15289;SDS011;7746;50.554;7.108;2023-08-21T19:18:36;411.20;;;330.53;;
15289;SDS011;7746;50.554;7.108;2023-08-21T19:21:03;403.27;;;317.40;;
15289;SDS011;7746;50.554;7.108;2023-08-21T19:23:32;408.10;;;314.70;;
15289;SDS011;7746;50.554;7.108;2023-08-21T19:25:59;413.27;;;329.70;;
15289;SDS011;7746;50.554;7.108;2023-08-21T19:28:26;405.10;;;312.67;;
15289;SDS011;7746;50.554;7.108;2023-08-21T19:30:53;410.83;;;312.13;;
15289;SDS011;7746;50.554;7.108;2023-08-21T19:33:21;405.30;;;314.00;;
15289;SDS011;7746;50.554;7.108;2023-08-21T19:35:49;413.43;;;344.60;;
15289;SDS011;7746;50.554;7.108;2023-08-21T19:38:16;413.77;;;335.33;;
15289;SDS011;7746;50.554;7.108;2023-08-21T19:40:45;412.13;;;337.27;;
15289;SDS011;7746;50.554;7.108;2023-08-21T19:43:14;416.03;;;334.30;;
15289;SDS011;7746;50.554;7.108;2023-08-21T19:45:41;408.00;;;325.53;;
15289;SDS011;7746;50.554;7.108;2023-08-21T19:48:09;406.37;;;315.70;;
15289;SDS011;7746;50.554;7.108;2023-08-21T19:50:36;418.07;;;367.73;;
15289;SDS011;7746;50.554;7.108;2023-08-21T19:53:03;413.63;;;318.13;;
15289;SDS011;7746;50.554;7.108;2023-08-21T19:55:30;414.37;;;336.83;;
15289;SDS011;7746;50.554;7.108;2023-08-21T19:57:59;408.63;;;324.43;;
15289;SDS011;7746;50.554;7.108;2023-08-21T20:00:27;412.50;;;320.03;;
15289;SDS011;7746;50.554;7.108;2023-08-21T20:02:54;409.20;;;328.27;;
15289;SDS011;7746;50.554;7.108;2023-08-21T20:05:23;410.50;;;326.07;;
15289;SDS011;7746;50.554;7.108;2023-08-21T20:07:50;400.77;;;283.27;;
15289;SDS011;7746;50.554;7.108;2023-08-21T20:10:18;412.87;;;338.20;;
15289;SDS011;7746;50.554;7.108;2023-08-21T20:12:45;414.93;;;302.27;;
15289;SDS011;7746;50.554;7.108;2023-08-21T20:15:13;409.93;;;330.93;;
15289;SDS011;7746;50.554;7.108;2023-08-21T20:17:41;410.27;;;315.13;;
15289;SDS011;7746;50.554;7.108;2023-08-21T20:20:08;412.80;;;329.00;;
15289;SDS011;7746;50.554;7.108;2023-08-21T20:22:37;405.73;;;285.20;;
15289;SDS011;7746;50.554;7.108;2023-08-21T20:25:05;398.03;;;286.50;;
15289;SDS011;7746;50.554;7.108;2023-08-21T20:27:32;402.07;;;265.77;;
15289;SDS011;7746;50.554;7.108;2023-08-21T20:29:59;397.93;;;255.13;;
15289;SDS011;7746;50.554;7.108;2023-08-21T20:32:28;407.80;;;275.67;;
15289;SDS011;7746;50.554;7.108;2023-08-21T20:34:56;403.20;;;284.17;;
15289;SDS011;7746;50.554;7.108;2023-08-21T20:37:23;397.77;;;269.90;;
15289;SDS011;7746;50.554;7.108;2023-08-21T20:39:50;399.47;;;272.47;;
15289;SDS011;7746;50.554;7.108;2023-08-21T20:42:17;412.07;;;331.50;;
15289;SDS011;7746;50.554;7.108;2023-08-21T20:44:45;400.23;;;280.00;;
15289;SDS011;7746;50.554;7.108;2023-08-21T20:47:12;409.33;;;305.00;;
15289;SDS011;7746;50.554;7.108;2023-08-21T20:49:41;404.83;;;290.77;;
15289;SDS011;7746;50.554;7.108;2023-08-21T20:52:08;398.77;;;282.37;;
15289;SDS011;7746;50.554;7.108;2023-08-21T20:54:36;402.10;;;275.70;;
15289;SDS011;7746;50.554;7.108;2023-08-21T20:57:03;406.47;;;310.03;;
15289;SDS011;7746;50.554;7.108;2023-08-21T20:59:30;407.77;;;318.43;;
15289;SDS011;7746;50.554;7.108;2023-08-21T21:01:57;403.67;;;300.87;;
15289;SDS011;7746;50.554;7.108;2023-08-21T21:04:24;408.40;;;310.87;;
15289;SDS011;7746;50.554;7.108;2023-08-21T21:06:53;399.90;;;284.10;;
15289;SDS011;7746;50.554;7.108;2023-08-21T21:09:20;418.37;;;319.07;;
15289;SDS011;7746;50.554;7.108;2023-08-21T21:11:47;407.83;;;313.73;;
15289;SDS011;7746;50.554;7.108;2023-08-21T21:14:14;401.87;;;279.23;;
15289;SDS011;7746;50.554;7.108;2023-08-21T21:16:42;404.43;;;276.53;;
15289;SDS011;7746;50.554;7.108;2023-08-21T21:19:09;391.97;;;243.03;;
15289;SDS011;7746;50.554;7.108;2023-08-21T21:21:36;393.50;;;263.00;;
15289;SDS011;7746;50.554;7.108;2023-08-21T21:24:05;401.27;;;282.57;;
15289;SDS011;7746;50.554;7.108;2023-08-21T21:26:32;410.37;;;279.90;;
15289;SDS011;7746;50.554;7.108;2023-08-21T21:28:59;388.50;;;238.80;;
15289;SDS011;7746;50.554;7.108;2023-08-21T21:31:29;385.37;;;228.70;;
15289;SDS011;7746;50.554;7.108;2023-08-21T21:33:56;396.83;;;270.33;;
15289;SDS011;7746;50.554;7.108;2023-08-21T21:36:23;399.43;;;287.80;;
15289;SDS011;7746;50.554;7.108;2023-08-21T21:38:51;402.07;;;282.93;;
15289;SDS011;7746;50.554;7.108;2023-08-21T21:41:20;400.87;;;273.17;;
15289;SDS011;7746;50.554;7.108;2023-08-21T21:43:47;392.30;;;244.07;;
15289;SDS011;7746;50.554;7.108;2023-08-21T21:46:15;397.17;;;254.37;;
15289;SDS011;7746;50.554;7.108;2023-08-21T21:48:49;394.37;;;256.10;;
15289;SDS011;7746;50.554;7.108;2023-08-21T21:51:17;397.97;;;274.77;;
15289;SDS011;7746;50.554;7.108;2023-08-21T21:53:44;398.43;;;271.47;;
15289;SDS011;7746;50.554;7.108;2023-08-21T21:56:11;396.53;;;263.23;;
15289;SDS011;7746;50.554;7.108;2023-08-21T21:58:40;394.30;;;259.50;;
15289;SDS011;7746;50.554;7.108;2023-08-21T22:01:08;405.10;;;259.23;;
15289;SDS011;7746;50.554;7.108;2023-08-21T22:03:35;396.90;;;255.00;;
15289;SDS011;7746;50.554;7.108;2023-08-21T22:06:03;410.63;;;305.80;;
15289;SDS011;7746;50.554;7.108;2023-08-21T22:08:30;402.30;;;283.17;;
15289;SDS011;7746;50.554;7.108;2023-08-21T22:11:01;398.97;;;274.57;;
15289;SDS011;7746;50.554;7.108;2023-08-21T22:13:30;394.43;;;250.23;;
15289;SDS011;7746;50.554;7.108;2023-08-21T22:15:59;404.37;;;274.50;;
15289;SDS011;7746;50.554;7.108;2023-08-21T22:18:26;397.60;;;271.67;;
15289;SDS011;7746;50.554;7.108;2023-08-21T22:20:54;400.70;;;262.77;;
15289;SDS011;7746;50.554;7.108;2023-08-21T22:23:21;389.40;;;258.10;;
15289;SDS011;7746;50.554;7.108;2023-08-21T22:25:48;397.00;;;252.37;;
15289;SDS011;7746;50.554;7.108;2023-08-21T22:28:16;395.03;;;253.07;;
15289;SDS011;7746;50.554;7.108;2023-08-21T22:30:44;393.53;;;241.50;;
15289;SDS011;7746;50.554;7.108;2023-08-21T22:33:13;400.40;;;292.50;;
15289;SDS011;7746;50.554;7.108;2023-08-21T22:35:40;401.50;;;284.10;;
15289;SDS011;7746;50.554;7.108;2023-08-21T22:38:07;394.70;;;251.60;;
15289;SDS011;7746;50.554;7.108;2023-08-21T22:40:34;394.20;;;243.23;;
15289;SDS011;7746;50.554;7.108;2023-08-21T22:43:02;395.57;;;247.57;;
15289;SDS011;7746;50.554;7.108;2023-08-21T22:45:29;390.87;;;250.63;;
15289;SDS011;7746;50.554;7.108;2023-08-21T22:47:56;383.37;;;236.13;;
15289;SDS011;7746;50.554;7.108;2023-08-21T22:50:25;400.27;;;289.43;;
15289;SDS011;7746;50.554;7.108;2023-08-21T22:52:52;403.73;;;265.60;;
15289;SDS011;7746;50.554;7.108;2023-08-21T22:55:19;400.43;;;262.17;;
15289;SDS011;7746;50.554;7.108;2023-08-21T22:57:46;398.20;;;264.87;;
15289;SDS011;7746;50.554;7.108;2023-08-21T23:00:14;404.77;;;274.07;;
15289;SDS011;7746;50.554;7.108;2023-08-21T23:02:41;404.33;;;262.23;;
15289;SDS011;7746;50.554;7.108;2023-08-21T23:05:09;395.20;;;250.30;;
15289;SDS011;7746;50.554;7.108;2023-08-21T23:07:37;390.90;;;241.10;;
15289;SDS011;7746;50.554;7.108;2023-08-21T23:10:05;408.77;;;282.43;;
15289;SDS011;7746;50.554;7.108;2023-08-21T23:12:33;406.33;;;253.83;;
15289;SDS011;7746;50.554;7.108;2023-08-21T23:15:00;390.77;;;247.33;;
15289;SDS011;7746;50.554;7.108;2023-08-21T23:17:27;390.03;;;236.90;;
15289;SDS011;7746;50.554;7.108;2023-08-21T23:19:55;394.67;;;240.33;;
15289;SDS011;7746;50.554;7.108;2023-08-21T23:22:22;405.87;;;246.37;;
15289;SDS011;7746;50.554;7.108;2023-08-21T23:24:51;392.33;;;239.00;;
15289;SDS011;7746;50.554;7.108;2023-08-21T23:27:18;390.00;;;235.30;;
15289;SDS011;7746;50.554;7.108;2023-08-21T23:29:45;396.47;;;249.23;;
15289;SDS011;7746;50.554;7.108;2023-08-21T23:32:12;395.67;;;248.90;;
15289;SDS011;7746;50.554;7.108;2023-08-21T23:34:40;394.07;;;237.07;;
15289;SDS011;7746;50.554;7.108;2023-08-21T23:37:07;391.60;;;229.70;;
15289;SDS011;7746;50.554;7.108;2023-08-21T23:39:34;385.07;;;207.47;;
15289;SDS011;7746;50.554;7.108;2023-08-21T23:42:03;381.50;;;223.63;;
15289;SDS011;7746;50.554;7.108;2023-08-21T23:44:32;393.10;;;238.23;;
15289;SDS011;7746;50.554;7.108;2023-08-21T23:46:59;396.43;;;255.57;;
15289;SDS011;7746;50.554;7.108;2023-08-21T23:49:28;397.57;;;236.47;;
15289;SDS011;7746;50.554;7.108;2023-08-21T23:51:55;393.97;;;233.60;;
15289;SDS011;7746;50.554;7.108;2023-08-21T23:54:22;397.23;;;235.10;;
15289;SDS011;7746;50.554;7.108;2023-08-21T23:56:49;391.37;;;232.77;;
15289;SDS011;7746;50.554;7.108;2023-08-21T23:59:18;394.70;;;221.13;;
